Time;durP1;ratioP1;P1;durP2;ratioP2;P2;SDS_P1;SDS_P2;PMS_P1;PMS_P2;Temp;Humidity;BMP_temperature;BMP_pressure;BME280_temperature;BME280_humidity;BME280_pressure;Samples;Min_cycle;Max_cycle;Signal;HPM_P1;HPM_P2
2021/12/13 00:01:16;;;;;;;10.93;10.03;;;9.80;99.90;;;;;;5013132;28;20182;-66
2021/12/13 00:04:04;;;;;;;10.00;9.30;;;9.80;99.90;;;;;;5013257;28;20164;-65
2021/12/13 00:06:33;;;;;;;8.00;7.50;;;9.80;99.90;;;;;;5013393;28;20178;-65
2021/12/13 00:09:03;;;;;;;8.77;8.17;;;9.80;99.90;;;;;;5013510;28;20227;-66
2021/12/13 00:11:34;;;;;;;9.00;8.40;;;9.70;99.90;;;;;;5013250;28;20234;-67
2021/12/13 00:14:07;;;;;;;9.07;8.17;;;9.70;99.90;;;;;;5013070;28;20176;-66
2021/12/13 00:16:37;;;;;;;9.07;8.37;;;9.70;99.90;;;;;;5013236;28;20259;-65
2021/12/13 00:19:07;;;;;;;9.67;8.97;;;9.70;99.90;;;;;;5013134;28;20616;-65
2021/12/13 00:21:38;;;;;;;9.23;8.50;;;9.70;99.90;;;;;;5012017;28;20250;-66
2021/12/13 00:24:21;;;;;;;9.23;8.43;;;9.70;99.90;;;;;;5012781;28;20180;-66
2021/12/13 00:26:49;;;;;;;8.63;8.03;;;9.60;99.90;;;;;;5011997;28;20199;-67
2021/12/13 00:29:20;;;;;;;9.23;8.40;;;9.60;99.90;;;;;;5012699;28;20200;-66
2021/12/13 00:32:16;;;;;;;9.27;8.50;;;9.60;99.90;;;;;;5013085;28;20172;-66
2021/12/13 00:35:04;;;;;;;8.97;8.30;;;9.60;99.90;;;;;;5012998;28;20180;-66
2021/12/13 00:37:31;;;;;;;8.50;7.83;;;9.60;99.90;;;;;;5012391;28;20202;-67
2021/12/13 00:40:06;;;;;;;8.27;7.77;;;9.60;99.90;;;;;;5012465;28;20211;-67
2021/12/13 00:42:45;;;;;;;8.80;7.87;;;9.60;99.90;;;;;;5011245;28;20234;-66
2021/12/13 00:45:15;;;;;;;9.00;8.10;;;9.60;99.90;;;;;;5012792;28;20263;-67
2021/12/13 00:47:42;;;;;;;8.40;7.70;;;9.60;99.90;;;;;;5012887;28;20206;-65
2021/12/13 00:50:23;;;;;;;9.43;8.63;;;9.60;99.90;;;;;;5012478;28;20196;-67
2021/12/13 00:52:51;;;;;;;8.63;7.90;;;9.50;99.90;;;;;;5012239;28;20653;-67
2021/12/13 00:55:21;;;;;;;8.63;8.03;;;9.50;99.90;;;;;;5012688;28;20247;-66
2021/12/13 00:57:53;;;;;;;9.60;8.70;;;9.50;99.90;;;;;;5012223;28;20184;-64
2021/12/13 01:00:33;;;;;;;9.37;8.60;;;9.50;99.90;;;;;;5012487;28;20192;-66
2021/12/13 01:03:00;;;;;;;9.63;8.73;;;9.50;99.90;;;;;;5012499;28;20669;-66
2021/12/13 01:05:53;;;;;;;9.90;8.90;;;9.50;99.90;;;;;;5012497;28;20596;-67
2021/12/13 01:08:51;;;;;;;10.10;9.20;;;9.50;99.90;;;;;;5010929;28;20520;-66
2021/12/13 01:11:38;;;;;;;9.97;9.07;;;9.50;99.90;;;;;;5012329;28;20259;-67
2021/12/13 01:14:19;;;;;;;9.63;8.77;;;9.50;99.90;;;;;;4992362;28;20226;-67
2021/12/13 01:17:12;;;;;;;8.50;7.90;;;9.50;99.90;;;;;;4993357;28;20279;-67
2021/12/13 01:19:50;;;;;;;9.40;8.57;;;9.50;99.90;;;;;;5012285;28;20211;-67
2021/12/13 01:25:25;;;;;;;8.07;7.47;;;9.40;99.90;;;;;;5012471;28;20200;-67
2021/12/13 01:28:09;;;;;;;9.43;8.83;;;9.40;99.90;;;;;;5011916;28;20252;-67
2021/12/13 01:30:40;;;;;;;8.47;7.87;;;9.40;99.90;;;;;;5012040;28;20583;-67
2021/12/13 01:33:09;;;;;;;9.67;8.73;;;9.40;99.90;;;;;;5011694;28;20180;-67
2021/12/13 01:35:40;;;;;;;9.23;8.50;;;9.40;99.90;;;;;;5012030;28;20676;-67
2021/12/13 01:38:12;;;;;;;8.57;7.53;;;9.40;99.90;;;;;;5011612;28;20187;-65
2021/12/13 01:40:41;;;;;;;8.13;7.50;;;9.40;99.90;;;;;;5012047;28;20581;-67
2021/12/13 01:43:11;;;;;;;7.57;6.97;;;9.40;99.90;;;;;;5011278;28;20568;-67
2021/12/13 01:45:41;;;;;;;7.30;6.70;;;9.40;99.90;;;;;;5011843;28;20818;-67
2021/12/13 01:48:22;;;;;;;7.37;6.83;;;9.40;99.90;;;;;;5011730;28;20227;-67
2021/12/13 01:50:53;;;;;;;7.40;6.90;;;9.40;99.90;;;;;;5010656;28;20512;-67
2021/12/13 01:53:40;;;;;;;7.73;7.23;;;9.50;99.90;;;;;;5011582;28;20518;-66
2021/12/13 01:56:36;;;;;;;7.87;7.27;;;9.50;99.90;;;;;;5011001;28;20192;-67
2021/12/13 01:59:27;;;;;;;8.10;7.57;;;9.40;99.90;;;;;;5011103;28;20184;-65
2021/12/13 02:01:56;;;;;;;8.57;7.87;;;9.50;99.90;;;;;;5011148;28;20692;-66
2021/12/13 02:04:22;;;;;;;7.87;7.40;;;9.50;99.90;;;;;;5011059;28;20243;-67
2021/12/13 02:06:51;;;;;;;8.30;7.70;;;9.40;99.90;;;;;;5011519;28;20271;-66
2021/12/13 02:09:16;;;;;;;7.47;7.00;;;9.50;99.90;;;;;;5011123;28;20620;-66
2021/12/13 02:11:51;;;;;;;7.83;7.23;;;9.40;99.90;;;;;;5010390;28;20200;-66
2021/12/13 02:14:19;;;;;;;6.70;6.30;;;9.40;99.90;;;;;;5011206;28;20179;-67
2021/12/13 02:17:11;;;;;;;7.40;6.87;;;9.50;99.90;;;;;;5011336;28;20510;-65
2021/12/13 02:19:39;;;;;;;8.37;7.67;;;9.40;99.90;;;;;;4991779;28;20204;-66
2021/12/13 02:22:25;;;;;;;7.60;7.10;;;9.40;99.90;;;;;;4991838;28;20207;-66
2021/12/13 02:24:54;;;;;;;7.67;7.17;;;9.50;99.90;;;;;;5011467;28;20183;-65
2021/12/13 02:27:24;;;;;;;8.20;7.60;;;9.40;99.90;;;;;;5011100;28;20202;-67
2021/12/13 02:29:53;;;;;;;7.93;7.23;;;9.40;99.90;;;;;;5009830;28;20719;-67
2021/12/13 02:32:22;;;;;;;7.43;7.03;;;9.50;99.90;;;;;;5010871;28;20176;-66
2021/12/13 02:34:48;;;;;;;6.87;6.40;;;9.50;99.90;;;;;;5011518;28;20173;-66
2021/12/13 02:37:14;;;;;;;7.70;7.10;;;9.50;99.90;;;;;;5011519;28;20183;-67
2021/12/13 02:39:46;;;;;;;7.23;6.83;;;9.60;99.90;;;;;;5011114;28;20633;-67
2021/12/13 02:42:15;;;;;;;6.97;6.57;;;9.60;99.90;;;;;;5011006;28;20269;-66
2021/12/13 02:44:49;;;;;;;7.43;6.93;;;9.60;99.90;;;;;;5010994;28;20173;-67
2021/12/13 02:47:37;;;;;;;7.50;7.10;;;9.70;99.90;;;;;;5011254;28;20221;-66
2021/12/13 02:50:14;;;;;;;7.73;7.13;;;9.70;99.90;;;;;;5001245;28;20196;-67
2021/12/13 02:52:41;;;;;;;7.20;6.80;;;9.60;99.90;;;;;;5010555;28;20176;-66
2021/12/13 02:55:15;;;;;;;7.70;7.20;;;9.70;99.90;;;;;;5011205;28;20177;-67
2021/12/13 02:57:46;;;;;;;7.07;6.57;;;9.70;99.90;;;;;;5011035;28;20171;-67
2021/12/13 03:00:25;;;;;;;7.57;7.07;;;9.70;99.90;;;;;;5010413;28;20544;-67
2021/12/13 03:02:56;;;;;;;8.33;7.10;;;9.70;99.90;;;;;;5010014;28;20582;-67
2021/12/13 03:05:40;;;;;;;7.47;6.97;;;9.70;99.90;;;;;;5011316;28;20168;-67
2021/12/13 03:08:11;;;;;;;7.30;6.60;;;9.70;99.90;;;;;;5011209;28;20242;-66
2021/12/13 03:10:43;;;;;;;7.23;6.73;;;9.70;99.90;;;;;;5011051;28;20261;-66
2021/12/13 03:13:09;;;;;;;7.40;6.80;;;9.70;99.90;;;;;;5010504;28;20172;-67
2021/12/13 03:15:36;;;;;;;7.30;6.73;;;9.70;99.90;;;;;;5010972;28;20181;-66
2021/12/13 03:18:24;;;;;;;7.53;7.03;;;9.70;99.90;;;;;;5013224;28;20259;-67
2021/12/13 03:21:11;;;;;;;7.30;6.90;;;9.70;99.90;;;;;;5014473;28;20612;-66
2021/12/13 03:24:10;;;;;;;7.40;7.00;;;9.70;99.90;;;;;;4993198;28;20183;-65
2021/12/13 03:26:57;;;;;;;7.77;7.07;;;9.70;99.90;;;;;;4999858;28;20282;-66
2021/12/13 03:29:56;;;;;;;7.67;7.17;;;9.70;99.90;;;;;;5014064;28;20211;-67
2021/12/13 03:32:22;;;;;;;8.37;7.77;;;9.70;99.90;;;;;;5013952;28;20262;-67
2021/12/13 03:35:09;;;;;;;8.53;7.80;;;9.70;99.90;;;;;;5013618;28;20219;-66
2021/12/13 03:37:35;;;;;;;7.83;7.30;;;9.70;99.90;;;;;;5014055;28;20650;-67
2021/12/13 03:40:06;;;;;;;8.10;7.60;;;9.80;99.90;;;;;;5013844;28;20238;-65
2021/12/13 03:42:37;;;;;;;8.07;7.47;;;9.80;99.90;;;;;;5013454;28;20218;-66
2021/12/13 03:45:15;;;;;;;7.60;7.20;;;9.80;99.90;;;;;;5013999;28;20198;-66
2021/12/13 03:47:50;;;;;;;8.30;7.60;;;9.80;99.90;;;;;;5013854;28;20719;-67
2021/12/13 03:50:24;;;;;;;7.50;7.00;;;9.80;99.90;;;;;;5013596;28;20183;-67
2021/12/13 03:52:57;;;;;;;7.63;7.23;;;9.80;99.90;;;;;;5013308;28;20176;-67
2021/12/13 03:55:28;;;;;;;7.50;7.00;;;9.80;99.90;;;;;;5013621;28;20238;-67
2021/12/13 03:57:59;;;;;;;9.27;7.40;;;9.80;99.90;;;;;;5013469;28;20203;-66
2021/12/13 04:00:29;;;;;;;7.17;6.77;;;9.80;99.90;;;;;;5013688;28;20192;-67
2021/12/13 04:02:58;;;;;;;7.47;6.97;;;9.80;99.90;;;;;;5013098;28;20211;-67
2021/12/13 04:05:27;;;;;;;7.57;7.13;;;9.80;99.90;;;;;;5013464;28;20172;-67
2021/12/13 04:07:58;;;;;;;7.83;7.33;;;9.80;99.90;;;;;;5013480;28;20172;-67
2021/12/13 04:10:31;;;;;;;7.60;7.00;;;9.80;99.90;;;;;;5013197;28;20200;-67
2021/12/13 04:13:00;;;;;;;7.33;6.83;;;9.80;99.90;;;;;;5013321;28;20177;-67
2021/12/13 04:15:35;;;;;;;7.10;6.70;;;9.80;99.90;;;;;;5013191;28;20192;-66
2021/12/13 04:18:15;;;;;;;7.07;6.57;;;9.90;99.90;;;;;;5013145;28;20645;-67
2021/12/13 04:20:44;;;;;;;6.97;6.53;;;9.80;99.90;;;;;;5013575;28;20562;-66
2021/12/13 04:23:12;;;;;;;6.83;6.50;;;9.90;99.90;;;;;;5013231;28;20653;-66
2021/12/13 04:25:41;;;;;;;7.50;6.90;;;9.80;99.90;;;;;;5013722;28;20233;-67
2021/12/13 04:28:26;;;;;;;7.30;6.80;;;9.80;99.90;;;;;;5012679;28;20183;-67
2021/12/13 04:30:59;;;;;;;7.40;7.00;;;9.80;99.90;;;;;;5013684;28;20195;-66
2021/12/13 04:33:40;;;;;;;7.73;7.07;;;9.80;99.90;;;;;;5012251;28;20254;-66
2021/12/13 04:36:13;;;;;;;7.43;6.93;;;9.80;99.90;;;;;;5012984;28;20180;-66
2021/12/13 04:38:58;;;;;;;7.10;6.70;;;9.80;99.90;;;;;;5012749;28;20538;-66
2021/12/13 04:41:32;;;;;;;7.43;6.93;;;9.80;99.90;;;;;;5012822;28;20200;-66
2021/12/13 04:44:03;;;;;;;7.33;6.83;;;9.80;99.90;;;;;;5012136;28;20315;-66
2021/12/13 04:46:31;;;;;;;7.93;7.43;;;9.90;99.90;;;;;;5012568;28;20180;-66
2021/12/13 04:49:03;;;;;;;8.23;7.63;;;9.90;99.90;;;;;;5012493;28;20215;-66
2021/12/13 04:51:46;;;;;;;7.23;6.83;;;9.90;99.90;;;;;;5012485;28;20253;-66
2021/12/13 04:54:14;;;;;;;7.33;6.93;;;9.90;99.90;;;;;;5012158;28;20176;-66
2021/12/13 04:56:41;;;;;;;7.10;6.70;;;9.90;99.90;;;;;;5012529;28;20176;-66
2021/12/13 04:59:10;;;;;;;7.97;7.30;;;9.80;99.90;;;;;;5012190;28;20211;-66
2021/12/13 05:01:37;;;;;;;7.20;6.50;;;9.90;99.90;;;;;;5011217;28;20293;-66
2021/12/13 05:04:07;;;;;;;7.07;6.67;;;9.90;99.90;;;;;;5011893;28;20172;-66
2021/12/13 05:06:40;;;;;;;7.67;7.27;;;9.90;99.90;;;;;;5012223;28;20199;-66
2021/12/13 05:09:10;;;;;;;8.40;7.77;;;9.90;99.90;;;;;;5012154;28;20227;-66
2021/12/13 05:11:47;;;;;;;8.47;7.80;;;9.90;99.90;;;;;;5012567;28;20180;-66
2021/12/13 05:14:13;;;;;;;7.67;7.03;;;9.90;99.90;;;;;;5011678;28;20175;-66
2021/12/13 05:16:50;;;;;;;8.30;7.60;;;9.90;99.90;;;;;;5012335;28;20212;-66
2021/12/13 05:19:45;;;;;;;8.80;8.00;;;9.80;99.90;;;;;;5011875;28;20192;-66
2021/12/13 05:22:14;;;;;;;12.63;9.27;;;9.90;99.90;;;;;;4990972;28;20227;-66
2021/12/13 05:24:51;;;;;;;8.17;7.57;;;9.90;99.90;;;;;;5012081;28;20176;-65
2021/12/13 05:27:31;;;;;;;8.87;8.03;;;9.90;99.90;;;;;;5011887;28;20184;-65
2021/12/13 05:30:20;;;;;;;9.07;8.17;;;9.90;99.90;;;;;;5011754;28;20204;-64
2021/12/13 05:32:54;;;;;;;11.13;8.77;;;9.80;99.90;;;;;;5011624;28;20180;-65
2021/12/13 05:35:22;;;;;;;18.33;12.37;;;9.90;99.90;;;;;;5011952;28;20588;-66
2021/12/13 05:37:57;;;;;;;15.93;9.23;;;9.90;99.90;;;;;;5011791;28;20188;-65
2021/12/13 05:40:39;;;;;;;25.23;13.47;;;9.80;99.90;;;;;;5011022;28;20227;-65
2021/12/13 05:43:27;;;;;;;9.57;8.77;;;9.90;99.90;;;;;;5011277;28;20199;-66
2021/12/13 05:46:17;;;;;;;8.67;7.87;;;9.90;99.90;;;;;;5012062;28;20168;-66
2021/12/13 05:49:06;;;;;;;8.07;7.57;;;9.80;99.90;;;;;;5008646;28;20201;-66
2021/12/13 05:51:46;;;;;;;9.07;8.27;;;9.80;99.90;;;;;;4992105;28;20180;-65
2021/12/13 05:54:22;;;;;;;14.00;9.40;;;9.80;99.90;;;;;;4993023;28;20694;-67
2021/12/13 05:57:09;;;;;;;9.90;8.63;;;9.80;99.90;;;;;;5011870;28;20195;-66
2021/12/13 06:00:02;;;;;;;15.37;9.07;;;9.90;99.90;;;;;;5010570;28;20215;-66
2021/12/13 06:02:46;;;;;;;9.37;8.20;;;9.90;99.90;;;;;;5011449;28;20219;-66
2021/12/13 06:05:26;;;;;;;7.83;7.23;;;9.90;99.90;;;;;;5010056;28;20168;-66
2021/12/13 06:07:58;;;;;;;7.53;7.13;;;9.90;99.90;;;;;;5011722;28;20515;-66
2021/12/13 06:10:31;;;;;;;8.30;7.70;;;9.90;99.90;;;;;;5011105;28;20192;-66
2021/12/13 06:13:04;;;;;;;7.10;6.60;;;9.90;99.90;;;;;;5010271;28;20179;-66
2021/12/13 06:15:31;;;;;;;6.80;6.17;;;9.80;99.90;;;;;;5011308;28;20628;-66
2021/12/13 06:18:11;;;;;;;7.60;7.10;;;9.80;99.90;;;;;;5011242;28;20180;-66
2021/12/13 06:20:47;;;;;;;7.17;6.73;;;9.80;99.90;;;;;;5011444;28;20234;-66
2021/12/13 06:23:23;;;;;;;7.17;6.77;;;9.80;99.90;;;;;;5010671;28;20298;-66
2021/12/13 06:25:58;;;;;;;6.87;6.47;;;9.80;99.90;;;;;;5011619;28;20164;-66
2021/12/13 06:28:33;;;;;;;6.97;6.30;;;9.80;99.90;;;;;;5011230;28;20168;-66
2021/12/13 06:31:00;;;;;;;6.60;6.20;;;9.80;99.90;;;;;;5011483;28;20164;-66
2021/12/13 06:33:27;;;;;;;7.37;6.97;;;9.80;99.90;;;;;;5010730;28;20168;-66
2021/12/13 06:36:01;;;;;;;8.73;8.03;;;9.80;99.90;;;;;;5011504;28;20172;-67
2021/12/13 06:38:44;;;;;;;8.30;7.80;;;9.80;99.90;;;;;;5011050;28;20180;-67
2021/12/13 06:41:28;;;;;;;8.90;8.20;;;9.80;99.90;;;;;;5010278;28;20705;-65
2021/12/13 06:43:57;;;;;;;9.03;8.13;;;9.80;99.90;;;;;;5011162;28;20184;-67
2021/12/13 06:46:23;;;;;;;8.90;8.20;;;9.80;99.90;;;;;;5011382;28;20180;-67
2021/12/13 06:49:06;;;;;;;7.80;7.30;;;9.80;99.90;;;;;;5009949;28;20200;-66
2021/12/13 06:51:50;;;;;;;7.37;6.93;;;9.80;99.90;;;;;;5013207;28;20275;-67
2021/12/13 06:54:25;;;;;;;8.53;7.93;;;9.80;99.90;;;;;;5014759;28;20176;-66
2021/12/13 06:57:00;;;;;;;8.13;7.63;;;9.80;99.90;;;;;;5015241;28;20188;-67
2021/12/13 06:59:28;;;;;;;7.17;6.87;;;9.80;99.90;;;;;;5013470;28;20263;-67
2021/12/13 07:02:03;;;;;;;7.10;6.80;;;9.80;99.90;;;;;;5014531;28;20208;-67
2021/12/13 07:04:47;;;;;;;7.03;6.63;;;9.80;99.90;;;;;;5014461;28;20172;-68
2021/12/13 07:07:14;;;;;;;7.87;7.43;;;9.80;99.90;;;;;;5014566;28;20261;-67
2021/12/13 07:09:56;;;;;;;7.70;7.20;;;9.80;99.90;;;;;;5014768;28;20283;-67
2021/12/13 07:12:25;;;;;;;7.00;6.67;;;9.80;99.90;;;;;;5013706;28;20183;-68
2021/12/13 07:14:51;;;;;;;7.03;6.53;;;9.80;99.90;;;;;;5014693;28;20258;-67
2021/12/13 07:17:22;;;;;;;7.07;6.70;;;9.80;99.90;;;;;;5014042;28;20226;-67
2021/12/13 07:19:51;;;;;;;6.77;6.43;;;9.80;99.90;;;;;;5014540;28;20257;-67
2021/12/13 07:22:26;;;;;;;6.97;6.57;;;9.90;99.90;;;;;;5013600;28;20215;-67
2021/12/13 07:25:00;;;;;;;6.60;6.30;;;9.90;99.90;;;;;;5014426;28;20642;-66
2021/12/13 07:27:33;;;;;;;7.03;6.57;;;9.90;99.90;;;;;;5013955;28;20688;-66
2021/12/13 07:30:21;;;;;;;6.93;6.53;;;9.90;99.90;;;;;;5014155;28;20203;-67
2021/12/13 07:32:57;;;;;;;7.27;6.70;;;9.90;99.90;;;;;;5013776;28;20196;-67
2021/12/13 07:35:39;;;;;;;6.77;6.37;;;9.90;99.90;;;;;;5013886;28;20561;-67
2021/12/13 07:38:08;;;;;;;7.03;6.63;;;9.80;99.90;;;;;;5013820;28;20187;-67
2021/12/13 07:40:50;;;;;;;7.17;6.77;;;9.90;99.90;;;;;;5013966;28;20199;-67
2021/12/13 07:43:22;;;;;;;6.30;5.90;;;9.90;99.90;;;;;;5013264;28;20294;-66
2021/12/13 07:45:56;;;;;;;6.40;6.10;;;9.90;99.90;;;;;;5014176;28;20180;-67
2021/12/13 07:48:33;;;;;;;6.57;6.27;;;9.90;99.90;;;;;;5012257;28;20207;-67
2021/12/13 07:51:18;;;;;;;6.60;6.30;;;9.90;99.90;;;;;;5013815;28;20180;-66
2021/12/13 07:53:58;;;;;;;6.43;6.13;;;9.90;99.90;;;;;;5013695;28;20263;-67
2021/12/13 07:56:30;;;;;;;7.03;6.53;;;9.90;99.90;;;;;;5013382;28;20188;-67
2021/12/13 07:59:08;;;;;;;6.30;6.00;;;9.90;99.90;;;;;;5013095;28;20204;-67
2021/12/13 08:01:42;;;;;;;6.80;6.40;;;9.90;99.90;;;;;;5013540;28;20302;-67
2021/12/13 08:04:15;;;;;;;6.60;6.20;;;9.90;99.90;;;;;;5012291;28;20172;-66
2021/12/13 08:06:51;;;;;;;6.23;5.93;;;9.90;99.90;;;;;;5013874;28;20634;-65
2021/12/13 08:09:22;;;;;;;6.10;5.80;;;9.90;99.90;;;;;;5013453;28;20202;-67
2021/12/13 08:11:57;;;;;;;7.70;7.00;;;9.90;99.90;;;;;;5013998;28;20176;-66
2021/12/13 08:14:30;;;;;;;6.00;5.70;;;9.90;99.90;;;;;;5012629;28;20227;-67
2021/12/13 08:17:06;;;;;;;6.37;6.07;;;10.00;99.90;;;;;;5013152;28;20177;-66
2021/12/13 08:19:33;;;;;;;6.47;6.13;;;10.00;99.90;;;;;;5013465;28;20195;-67
2021/12/13 08:22:01;;;;;;;6.30;6.00;;;9.90;99.90;;;;;;5010405;28;21539;-65
2021/12/13 08:24:31;;;;;;;6.17;5.77;;;10.00;99.90;;;;;;5012728;28;20642;-65
2021/12/13 08:27:06;;;;;;;9.23;8.83;;;10.00;99.90;;;;;;5013142;28;20179;-66
2021/12/13 08:29:37;;;;;;;8.13;7.80;;;10.00;99.90;;;;;;4995953;28;20216;-65
2021/12/13 08:32:19;;;;;;;5.90;5.60;;;10.10;99.90;;;;;;4993096;28;20650;-66
2021/12/13 08:34:58;;;;;;;6.13;5.83;;;10.10;99.90;;;;;;4993588;28;20187;-65
2021/12/13 08:37:32;;;;;;;6.17;5.87;;;10.10;99.90;;;;;;4993526;28;20657;-65
2021/12/13 08:40:07;;;;;;;6.70;6.30;;;10.10;99.90;;;;;;4993486;28;20197;-66
2021/12/13 08:42:38;;;;;;;6.50;6.00;;;10.10;99.90;;;;;;4997929;28;20285;-66
2021/12/13 08:45:38;;;;;;;6.33;6.00;;;10.10;99.90;;;;;;5012937;28;20516;-65
2021/12/13 08:48:12;;;;;;;6.30;6.00;;;10.10;99.90;;;;;;5012547;28;20376;-66
2021/12/13 08:50:52;;;;;;;6.20;5.90;;;10.10;99.90;;;;;;5012274;28;20578;-66
2021/12/13 08:53:26;;;;;;;6.70;6.17;;;10.10;99.90;;;;;;5012218;28;20649;-66
2021/12/13 08:56:23;;;;;;;6.00;5.70;;;10.00;99.90;;;;;;5012093;28;20269;-66
2021/12/13 08:59:01;;;;;;;6.70;6.40;;;10.00;99.90;;;;;;5003496;28;20216;-66
2021/12/13 09:01:37;;;;;;;6.97;6.57;;;10.00;99.90;;;;;;5012015;28;20203;-66
2021/12/13 09:04:04;;;;;;;6.43;6.13;;;10.00;99.90;;;;;;5011197;28;20183;-66
2021/12/13 09:06:33;;;;;;;6.50;6.20;;;10.00;99.90;;;;;;5010892;28;20591;-66
2021/12/13 09:09:15;;;;;;;6.90;6.50;;;10.10;99.90;;;;;;5011784;28;20196;-66
2021/12/13 09:11:44;;;;;;;6.70;6.40;;;10.10;99.90;;;;;;5012286;28;20542;-66
2021/12/13 09:14:39;;;;;;;6.37;5.97;;;10.10;99.90;;;;;;5012039;28;20183;-66
2021/12/13 09:17:21;;;;;;;6.90;6.40;;;10.20;99.90;;;;;;5010971;28;20231;-66
2021/12/13 09:19:50;;;;;;;6.80;6.40;;;10.20;99.90;;;;;;4995894;28;20201;-67
2021/12/13 09:22:31;;;;;;;6.10;5.77;;;10.20;99.90;;;;;;5003372;28;20236;-66
2021/12/13 09:25:08;;;;;;;6.50;6.20;;;10.20;99.90;;;;;;5012364;28;20250;-67
2021/12/13 09:27:36;;;;;;;6.40;6.10;;;10.20;99.90;;;;;;5011455;28;20270;-66
2021/12/13 09:30:11;;;;;;;6.73;6.23;;;10.20;99.90;;;;;;5011514;28;20203;-66
2021/12/13 09:32:48;;;;;;;6.10;5.80;;;10.20;99.90;;;;;;5011318;28;20179;-66
2021/12/13 09:35:35;;;;;;;6.10;5.80;;;10.20;99.90;;;;;;5010654;28;20175;-66
2021/12/13 09:38:24;;;;;;;5.93;5.63;;;10.30;99.90;;;;;;5010547;28;20256;-66
2021/12/13 09:41:32;;;;;;;6.10;5.80;;;10.30;99.90;;;;;;5009773;28;20539;-66
2021/12/13 09:44:11;;;;;;;6.03;5.73;;;10.30;99.90;;;;;;5003034;28;20212;-66
2021/12/13 09:46:44;;;;;;;6.10;5.80;;;10.40;99.90;;;;;;5011909;28;20207;-66
2021/12/13 09:49:21;;;;;;;6.13;5.83;;;10.40;99.90;;;;;;5011650;28;20607;-66
2021/12/13 09:51:58;;;;;;;6.10;5.80;;;10.40;99.90;;;;;;5011916;28;20176;-66
2021/12/13 09:54:39;;;;;;;6.30;6.00;;;10.50;99.90;;;;;;5010819;28;20183;-65
2021/12/13 09:57:15;;;;;;;6.57;6.27;;;10.60;99.90;;;;;;5011641;28;20213;-66
2021/12/13 09:59:51;;;;;;;6.00;5.70;;;10.60;99.90;;;;;;5011364;28;20204;-66
2021/12/13 10:02:24;;;;;;;6.03;5.73;;;10.60;99.90;;;;;;5011185;28;20636;-66
2021/12/13 10:04:51;;;;;;;7.00;6.50;;;10.70;99.90;;;;;;5011658;28;20180;-66
2021/12/13 10:07:29;;;;;;;6.30;6.00;;;10.80;99.90;;;;;;5011538;28;20172;-66
2021/12/13 10:10:06;;;;;;;6.13;5.83;;;10.80;99.90;;;;;;5011632;28;20549;-66
2021/12/13 10:12:50;;;;;;;6.40;6.10;;;10.80;99.90;;;;;;5010188;28;20179;-66
2021/12/13 10:15:26;;;;;;;6.30;6.00;;;10.70;99.90;;;;;;5011156;28;20191;-66
2021/12/13 10:17:59;;;;;;;6.60;6.20;;;10.70;99.90;;;;;;4991286;28;20238;-66
2021/12/13 10:20:30;;;;;;;6.30;6.00;;;10.70;99.90;;;;;;4991974;28;20207;-66
2021/12/13 10:22:56;;;;;;;6.83;6.43;;;10.70;99.90;;;;;;5010871;28;20211;-66
2021/12/13 10:25:29;;;;;;;6.70;6.33;;;10.70;99.90;;;;;;5011272;28;20200;-66
2021/12/13 10:27:55;;;;;;;6.53;6.23;;;10.80;99.90;;;;;;5014428;28;20184;-66
2021/12/13 10:30:30;;;;;;;6.67;6.37;;;10.90;99.90;;;;;;5015285;28;20678;-66
2021/12/13 10:32:56;;;;;;;6.67;6.37;;;11.00;99.90;;;;;;4995360;28;20207;-66
2021/12/13 10:35:28;;;;;;;6.60;6.20;;;11.10;99.90;;;;;;4995448;28;20176;-66
2021/12/13 10:37:58;;;;;;;6.90;6.50;;;11.30;99.90;;;;;;5014668;28;20623;-66
2021/12/13 10:40:29;;;;;;;7.47;6.87;;;11.30;99.90;;;;;;5014789;28;20616;-66
2021/12/13 10:43:02;;;;;;;7.10;6.70;;;11.50;99.90;;;;;;5014349;28;20208;-66
2021/12/13 10:45:34;;;;;;;6.90;6.50;;;11.60;99.90;;;;;;5014705;28;20176;-66
2021/12/13 10:48:03;;;;;;;6.80;6.40;;;11.80;99.90;;;;;;5009614;28;20176;-66
2021/12/13 10:50:47;;;;;;;6.80;6.40;;;11.80;99.90;;;;;;5013936;28;20204;-66
2021/12/13 10:53:17;;;;;;;7.23;6.83;;;11.90;99.90;;;;;;4995976;28;20246;-66
2021/12/13 10:55:52;;;;;;;7.40;7.00;;;11.90;99.90;;;;;;5013847;28;20202;-66
2021/12/13 10:58:23;;;;;;;7.00;6.53;;;12.00;99.90;;;;;;5014505;28;20187;-66
2021/12/13 11:00:56;;;;;;;6.30;6.00;;;12.10;99.90;;;;;;5013888;28;20239;-66
2021/12/13 11:03:24;;;;;;;6.63;6.33;;;12.20;99.90;;;;;;5014473;28;20330;-66
2021/12/13 11:05:51;;;;;;;6.50;6.20;;;12.20;99.90;;;;;;5014375;28;20227;-66
2021/12/13 11:08:19;;;;;;;6.50;6.20;;;12.30;99.90;;;;;;5014718;28;20207;-65
2021/12/13 11:10:53;;;;;;;6.37;6.00;;;12.20;99.90;;;;;;5015255;28;20733;-65
2021/12/13 11:13:25;;;;;;;6.47;6.17;;;12.00;99.90;;;;;;5012760;28;20664;-66
2021/12/13 11:15:54;;;;;;;7.43;6.93;;;11.90;99.90;;;;;;5014285;28;20220;-66
2021/12/13 11:18:27;;;;;;;6.40;6.00;;;11.90;99.90;;;;;;5014210;28;20172;-67
2021/12/13 11:20:59;;;;;;;6.60;6.20;;;11.80;99.90;;;;;;5014266;28;20188;-66
2021/12/13 11:23:25;;;;;;;6.90;6.30;;;11.80;99.90;;;;;;5013341;28;20219;-66
2021/12/13 11:25:58;;;;;;;6.70;6.30;;;11.70;99.90;;;;;;5014316;28;20173;-67
2021/12/13 11:28:25;;;;;;;6.50;6.20;;;11.80;99.90;;;;;;5012182;28;20180;-67
2021/12/13 11:30:53;;;;;;;6.40;6.10;;;11.90;99.90;;;;;;5014296;28;20204;-67
2021/12/13 11:33:37;;;;;;;7.47;6.77;;;12.10;99.90;;;;;;5013467;28;20217;-67
2021/12/13 11:36:25;;;;;;;6.47;6.17;;;12.10;99.90;;;;;;5014279;28;20595;-65
2021/12/13 11:39:18;;;;;;;6.20;5.90;;;12.10;99.90;;;;;;5012595;28;20200;-66
2021/12/13 11:42:21;;;;;;;6.40;6.00;;;12.10;99.90;;;;;;5013929;28;20204;-67
2021/12/13 11:45:14;;;;;;;6.70;6.20;;;12.00;99.90;;;;;;4994392;28;20577;-67
2021/12/13 11:47:40;;;;;;;6.00;5.70;;;11.90;99.90;;;;;;5001099;28;20176;-66
2021/12/13 11:50:40;;;;;;;6.40;6.00;;;11.80;99.90;;;;;;5013699;28;20215;-66
2021/12/13 11:53:34;;;;;;;5.70;5.47;;;11.70;99.90;;;;;;5000553;28;20282;-67
2021/12/13 11:56:12;;;;;;;5.70;5.40;;;11.70;99.90;;;;;;5013555;28;20176;-65
2021/12/13 11:59:10;;;;;;;5.73;5.43;;;11.60;99.90;;;;;;5013234;28;20183;-65
2021/12/13 12:02:01;;;;;;;5.73;5.43;;;11.60;99.90;;;;;;5013503;28;20250;-67
2021/12/13 12:04:55;;;;;;;5.83;5.53;;;11.60;99.90;;;;;;5013101;28;20614;-66
2021/12/13 12:07:58;;;;;;;5.77;5.47;;;11.60;99.90;;;;;;5013478;28;20172;-66
2021/12/13 12:10:51;;;;;;;6.37;6.00;;;11.60;99.90;;;;;;4993462;28;20570;-67
2021/12/13 12:13:42;;;;;;;6.93;6.63;;;11.60;99.90;;;;;;4997026;28;20270;-66
2021/12/13 12:16:08;;;;;;;6.47;6.13;;;11.60;99.90;;;;;;5013479;28;20536;-67
2021/12/13 12:18:37;;;;;;;6.50;6.20;;;11.70;99.90;;;;;;5012873;28;20195;-67
2021/12/13 12:21:45;;;;;;;6.63;6.33;;;11.80;99.90;;;;;;5013386;28;20645;-67
2021/12/13 12:24:15;;;;;;;6.47;6.17;;;11.80;99.90;;;;;;5003370;28;20246;-67
2021/12/13 12:26:45;;;;;;;5.90;5.60;;;11.80;99.90;;;;;;5013380;28;20179;-66
2021/12/13 12:29:17;;;;;;;5.40;5.20;;;11.70;99.90;;;;;;5012836;28;20242;-66
2021/12/13 12:31:47;;;;;;;5.50;5.30;;;11.50;99.90;;;;;;5013247;28;20168;-66
2021/12/13 12:34:13;;;;;;;5.50;5.30;;;11.50;99.90;;;;;;5012814;28;20263;-66
2021/12/13 12:37:05;;;;;;;5.90;5.70;;;11.40;99.90;;;;;;5012923;28;20175;-66
2021/12/13 12:40:08;;;;;;;5.60;5.40;;;11.30;99.90;;;;;;5012518;28;20200;-67
2021/12/13 12:42:38;;;;;;;5.47;5.27;;;11.30;99.90;;;;;;5002843;28;20223;-66
2021/12/13 12:45:12;;;;;;;5.73;5.53;;;11.30;99.90;;;;;;5011539;28;20268;-66
2021/12/13 12:48:04;;;;;;;5.63;5.43;;;11.20;99.90;;;;;;5012739;28;20587;-67
2021/12/13 12:50:38;;;;;;;5.87;5.60;;;11.30;99.90;;;;;;5010309;28;20212;-67
2021/12/13 12:53:18;;;;;;;6.37;6.07;;;11.30;99.90;;;;;;5012558;28;20180;-66
2021/12/13 12:55:55;;;;;;;5.40;5.20;;;11.40;99.90;;;;;;5012465;28;20249;-66
2021/12/13 12:58:50;;;;;;;7.57;5.90;;;11.40;99.90;;;;;;4992783;28;20702;-65
2021/12/13 13:01:24;;;;;;;5.90;5.40;;;11.30;99.90;;;;;;5000429;28;20199;-65
2021/12/13 13:03:51;;;;;;;6.30;5.80;;;11.40;99.90;;;;;;5012304;28;20698;-65
2021/12/13 13:06:22;;;;;;;6.20;5.90;;;11.40;99.90;;;;;;5012039;28;20544;-67
2021/12/13 13:08:52;;;;;;;6.00;5.70;;;11.40;99.90;;;;;;5010786;28;20610;-66
2021/12/13 13:13:51;;;;;;;5.60;5.30;;;11.30;99.90;;;;;;5011929;28;20223;-66
2021/12/13 13:16:19;;;;;;;5.30;5.00;;;11.30;99.90;;;;;;5012911;28;20176;-66
2021/12/13 13:18:46;;;;;;;6.27;5.67;;;11.20;99.90;;;;;;5013091;28;20196;-66
2021/12/13 13:21:14;;;;;;;5.80;5.60;;;11.20;99.90;;;;;;5011931;28;20180;-65
2021/12/13 13:23:47;;;;;;;5.80;5.50;;;11.30;99.90;;;;;;5011988;28;20195;-67
2021/12/13 13:26:15;;;;;;;5.60;5.40;;;11.30;99.90;;;;;;5011898;28;20188;-66
2021/12/13 13:28:47;;;;;;;6.63;6.17;;;11.30;99.90;;;;;;5011759;28;20216;-66
2021/12/13 13:31:13;;;;;;;6.93;6.53;;;11.30;99.90;;;;;;5011546;28;20276;-66
2021/12/13 13:33:43;;;;;;;6.17;5.87;;;11.20;99.90;;;;;;5011406;28;20271;-66
2021/12/13 13:36:12;;;;;;;6.77;6.37;;;11.20;99.90;;;;;;5011743;28;20184;-67
2021/12/13 13:38:38;;;;;;;7.23;6.83;;;11.20;99.90;;;;;;5011592;28;20216;-66
2021/12/13 13:41:18;;;;;;;8.13;7.53;;;11.10;99.90;;;;;;5012422;28;20579;-66
2021/12/13 13:43:44;;;;;;;7.80;7.20;;;11.10;99.90;;;;;;5011211;28;20242;-66